createdAt,value
2023-05-09T00:00:42.811Z,69.11
2023-05-09T00:01:45.294Z,69.54
2023-05-09T00:02:47.784Z,71.18
2023-05-09T00:03:51.319Z,70.74
2023-05-09T00:04:52.905Z,71.11
2023-05-09T00:05:54.442Z,71.97
2023-05-09T00:06:55.931Z,71.64
2023-05-09T00:07:57.499Z,71.39
2023-05-09T00:08:58.941Z,72.09
2023-05-09T00:10:00.811Z,71.50
2023-05-09T00:11:02.259Z,72.07
2023-05-09T00:12:04.115Z,73.54
2023-05-09T00:13:06.013Z,72.17
2023-05-09T00:14:07.845Z,72.58
2023-05-09T00:15:09.910Z,71.47
2023-05-09T00:16:11.417Z,72.32
2023-05-09T00:17:15.600Z,70.83
2023-05-09T00:18:17.997Z,71.76
2023-05-09T00:19:19.654Z,71.21
2023-05-09T00:20:24.259Z,70.83
2023-05-09T00:21:25.953Z,72.59
2023-05-09T00:22:28.025Z,72.74
2023-05-09T00:23:30.364Z,73.05
2023-05-09T00:24:31.921Z,70.57
2023-05-09T00:25:33.457Z,71.86
2023-05-09T00:26:34.935Z,72.41
2023-05-09T00:27:36.619Z,72.66
2023-05-09T00:28:38.079Z,74.01
2023-05-09T00:29:39.546Z,73.48
2023-05-09T00:30:41.016Z,73.85
2023-05-09T00:31:42.422Z,73.84
2023-05-09T00:32:43.927Z,71.86
2023-05-09T00:33:45.492Z,73.48
2023-05-09T00:34:46.882Z,71.26
2023-05-09T00:35:48.277Z,71.67
2023-05-09T00:36:50.614Z,73.10
2023-05-09T00:37:52.051Z,73.11
2023-05-09T00:38:53.474Z,74.06
2023-05-09T00:39:54.870Z,73.56
2023-05-09T00:40:56.305Z,73.11
2023-05-09T00:41:57.716Z,72.82
2023-05-09T00:43:00.038Z,71.81
2023-05-09T00:44:01.520Z,73.00
2023-05-09T00:45:03.266Z,73.39
2023-05-09T00:46:04.835Z,72.70
2023-05-09T00:47:09.498Z,72.37
2023-05-09T00:48:11.200Z,71.11
2023-05-09T00:49:12.724Z,72.00
2023-05-09T00:50:14.824Z,73.19
2023-05-09T00:51:16.884Z,71.40
2023-05-09T00:52:23.019Z,73.79
2023-05-09T00:53:25.305Z,72.83
2023-05-09T00:54:26.931Z,71.42
2023-05-09T00:55:28.345Z,73.09
2023-05-09T00:56:29.829Z,72.13
2023-05-09T00:57:31.231Z,72.05
2023-05-09T00:58:32.716Z,72.00
2023-05-09T00:59:34.621Z,73.10
2023-05-09T01:00:36.627Z,71.32
2023-05-09T01:01:38.035Z,69.85
2023-05-09T01:02:44.578Z,69.85
2023-05-09T01:03:47.300Z,70.01
2023-05-09T01:04:49.096Z,70.15
2023-05-09T01:06:09.334Z,70.96
2023-05-09T01:07:19.304Z,70.76
2023-05-09T01:08:44.355Z,71.12
2023-05-09T01:10:13.415Z,70.07
2023-05-09T01:11:32.120Z,71.99
2023-05-09T01:12:51.017Z,69.05
2023-05-09T01:14:11.154Z,70.27
2023-05-09T01:15:24.083Z,67.66
2023-05-09T01:16:35.329Z,69.08
2023-05-09T01:17:52.822Z,69.42
2023-05-09T01:19:23.009Z,70.99
2023-05-09T01:20:35.543Z,68.86
2023-05-09T01:21:38.779Z,72.13
2023-05-09T01:22:46.690Z,69.36
2023-05-09T01:24:03.352Z,69.11
2023-05-09T01:25:32.677Z,70.21
2023-05-09T01:27:11.764Z,71.22
2023-05-09T01:28:42.047Z,71.11
2023-05-09T01:29:47.351Z,70.74
2023-05-09T01:30:53.458Z,71.19
2023-05-09T01:31:56.940Z,70.33
2023-05-09T01:33:01.030Z,69.68
2023-05-09T01:34:03.282Z,72.07
2023-05-09T01:35:06.134Z,71.41
2023-05-09T01:36:13.267Z,72.94
2023-05-09T01:37:19.658Z,73.05
2023-05-09T01:38:25.476Z,73.21
2023-05-09T01:39:28.380Z,70.35
2023-05-09T01:40:31.936Z,71.87
2023-05-09T01:41:37.429Z,72.33
2023-05-09T01:42:45.590Z,71.45
2023-05-09T01:43:50.459Z,71.71
2023-05-09T01:44:54.088Z,71.20
2023-05-09T01:45:57.330Z,71.12
2023-05-09T01:47:01.144Z,72.51
2023-05-09T01:48:04.456Z,71.51
2023-05-09T01:49:08.680Z,71.14
2023-05-09T01:50:12.048Z,70.79
2023-05-09T01:51:15.536Z,72.09
2023-05-09T01:52:19.947Z,73.09
2023-05-09T01:53:23.095Z,71.18
2023-05-09T01:54:27.364Z,72.51
2023-05-09T01:55:32.617Z,72.00
2023-05-09T01:56:36.259Z,72.75
2023-05-09T01:57:39.439Z,72.14
2023-05-09T01:58:42.439Z,71.37
2023-05-09T01:59:45.964Z,70.97
2023-05-09T02:00:48.540Z,72.99
2023-05-09T02:01:50.790Z,72.92
2023-05-09T02:02:53.310Z,72.77
2023-05-09T02:03:56.907Z,73.32
2023-05-09T02:04:59.099Z,73.52
2023-05-09T02:06:03.302Z,72.50
2023-05-09T02:07:06.171Z,72.80
2023-05-09T02:08:08.567Z,73.58
2023-05-09T02:09:11.285Z,73.62
2023-05-09T02:10:15.557Z,74.93
2023-05-09T02:11:17.051Z,74.73
2023-05-09T02:12:18.477Z,75.37
2023-05-09T02:13:20.005Z,74.48
2023-05-09T02:14:21.978Z,75.67
2023-05-09T02:15:24.444Z,73.41
2023-05-09T02:16:26.697Z,73.17
2023-05-09T02:17:30.660Z,73.56
2023-05-09T02:18:32.681Z,73.62
2023-05-09T02:19:35.301Z,74.77
2023-05-09T02:20:36.834Z,74.42
2023-05-09T02:21:38.385Z,72.70
2023-05-09T02:22:42.825Z,73.64
2023-05-09T02:23:44.418Z,73.34
2023-05-09T02:24:45.970Z,72.88
2023-05-09T02:25:47.634Z,73.72
2023-05-09T02:26:49.094Z,73.60
2023-05-09T02:27:52.027Z,74.36
2023-05-09T02:28:54.286Z,72.95
2023-05-09T02:29:58.320Z,74.01
2023-05-09T02:31:03.441Z,74.22
2023-05-09T02:32:11.296Z,73.53
2023-05-09T02:33:13.762Z,74.99
2023-05-09T02:34:16.560Z,75.36
2023-05-09T02:35:19.566Z,75.84
2023-05-09T02:36:22.370Z,75.26
2023-05-09T02:37:24.647Z,74.59
2023-05-09T02:38:27.142Z,74.82
2023-05-09T02:39:28.837Z,78.23
2023-05-09T02:40:31.034Z,75.92
2023-05-09T02:41:32.680Z,74.86
2023-05-09T02:42:34.105Z,75.28
2023-05-09T02:43:35.614Z,74.17
2023-05-09T02:44:38.822Z,74.50
2023-05-09T02:45:40.296Z,74.40
2023-05-09T02:46:41.725Z,73.72
2023-05-09T02:47:43.408Z,74.15
2023-05-09T02:48:44.833Z,73.30
2023-05-09T02:49:46.376Z,74.14
2023-05-09T02:50:47.784Z,73.67
2023-05-09T02:51:49.200Z,74.41
2023-05-09T02:52:50.792Z,74.98
2023-05-09T02:53:52.198Z,75.10
2023-05-09T02:54:53.618Z,74.68
2023-05-09T02:55:55.017Z,75.34
2023-05-09T02:56:56.695Z,74.59
2023-05-09T02:58:09.709Z,73.28
2023-05-09T02:59:15.001Z,74.72
2023-05-09T03:00:17.960Z,74.66
2023-05-09T03:01:19.393Z,73.54
2023-05-09T03:02:21.008Z,73.09
2023-05-09T03:03:23.351Z,74.20
2023-05-09T03:04:25.668Z,74.28
2023-05-09T03:05:27.203Z,74.66
2023-05-09T03:06:28.617Z,74.95
2023-05-09T03:07:30.773Z,75.40
2023-05-09T03:08:32.172Z,75.06
2023-05-09T03:09:33.615Z,75.20
2023-05-09T03:10:35.165Z,74.85
2023-05-09T03:11:36.801Z,74.76
2023-05-09T03:12:39.057Z,72.93
2023-05-09T03:13:40.493Z,74.86
2023-05-09T03:14:41.944Z,73.08
2023-05-09T03:15:43.369Z,73.65
2023-05-09T03:16:44.803Z,74.14
2023-05-09T03:17:46.587Z,74.87
2023-05-09T03:18:48.100Z,74.14
2023-05-09T03:19:49.604Z,74.73
2023-05-09T03:20:51.100Z,74.85
2023-05-09T03:21:52.628Z,74.51
2023-05-09T03:22:54.051Z,74.59
2023-05-09T03:23:55.793Z,75.92
2023-05-09T03:24:57.502Z,74.38
2023-05-09T03:25:58.915Z,74.64
2023-05-09T03:27:00.420Z,75.43
2023-05-09T03:28:01.856Z,75.14
2023-05-09T03:29:03.913Z,75.75
2023-05-09T03:30:05.912Z,75.95
2023-05-09T03:31:07.402Z,75.63
2023-05-09T03:32:08.851Z,75.61
2023-05-09T03:33:10.296Z,75.70
2023-05-09T03:34:15.122Z,76.25
2023-05-09T03:35:16.927Z,77.08
2023-05-09T03:36:18.610Z,77.17
2023-05-09T03:37:20.246Z,76.15
2023-05-09T03:38:24.231Z,75.22
2023-05-09T03:39:25.741Z,74.46
2023-05-09T03:40:27.203Z,73.89
2023-05-09T03:41:28.629Z,74.50
2023-05-09T03:42:30.043Z,73.86
2023-05-09T03:43:31.436Z,73.97
2023-05-09T03:44:32.960Z,75.51
2023-05-09T03:45:36.060Z,75.00
2023-05-09T03:46:37.596Z,74.64
2023-05-09T03:47:39.125Z,75.21
2023-05-09T03:48:40.581Z,75.68
2023-05-09T03:49:42.481Z,74.57
2023-05-09T03:50:44.038Z,74.81
2023-05-09T03:51:45.461Z,75.50
2023-05-09T03:52:47.434Z,74.93
2023-05-09T03:53:48.752Z,73.40
2023-05-09T03:54:50.174Z,75.28
2023-05-09T03:55:51.628Z,75.57
2023-05-09T03:56:53.018Z,74.12
2023-05-09T03:57:54.967Z,75.60
2023-05-09T03:58:56.396Z,74.30
2023-05-09T03:59:57.874Z,77.50
2023-05-09T04:00:59.335Z,77.66
2023-05-09T04:02:01.065Z,75.74
2023-05-09T04:03:02.751Z,76.29
2023-05-09T04:04:04.384Z,75.38
2023-05-09T04:05:06.179Z,75.01
2023-05-09T04:06:08.120Z,76.92
2023-05-09T04:07:09.558Z,75.34
2023-05-09T04:08:11.039Z,73.89
2023-05-09T04:09:12.449Z,73.84
2023-05-09T04:10:13.864Z,73.97
2023-05-09T04:11:15.392Z,72.32
2023-05-09T04:12:16.858Z,71.42
2023-05-09T04:13:18.320Z,69.98
2023-05-09T04:14:19.770Z,71.21
2023-05-09T04:15:21.274Z,72.19
2023-05-09T04:16:22.724Z,72.62
2023-05-09T04:17:24.185Z,74.16
2023-05-09T04:18:25.730Z,71.51
2023-05-09T04:19:27.191Z,71.34
2023-05-09T04:20:28.786Z,71.60
2023-05-09T04:21:31.701Z,70.87
2023-05-09T04:22:33.110Z,74.33
2023-05-09T04:23:34.524Z,71.82
2023-05-09T04:24:35.933Z,72.04
2023-05-09T04:25:37.409Z,73.04
2023-05-09T04:26:39.302Z,73.38
2023-05-09T04:27:42.162Z,71.21
2023-05-09T04:28:43.806Z,70.29
2023-05-09T04:29:45.507Z,70.72
2023-05-09T04:30:46.934Z,70.28
2023-05-09T04:31:48.515Z,70.67
2023-05-09T04:32:50.126Z,71.18
2023-05-09T04:33:52.149Z,69.91
2023-05-09T04:34:53.529Z,69.99
2023-05-09T04:35:54.963Z,69.17
2023-05-09T04:36:56.443Z,71.28
2023-05-09T04:37:57.867Z,68.65
2023-05-09T04:38:59.468Z,71.63
2023-05-09T04:40:01.392Z,67.88
2023-05-09T04:41:02.824Z,69.38
2023-05-09T04:42:05.001Z,68.80
2023-05-09T04:43:06.516Z,71.90
2023-05-09T04:44:07.925Z,68.28
2023-05-09T04:45:11.694Z,69.11
2023-05-09T04:46:13.280Z,66.99
2023-05-09T04:47:14.749Z,68.67
2023-05-09T04:48:16.175Z,66.59
2023-05-09T04:49:17.592Z,66.06
2023-05-09T04:50:19.023Z,67.04
2023-05-09T04:51:20.459Z,66.16
2023-05-09T04:52:22.110Z,63.44
2023-05-09T04:53:23.630Z,60.51
2023-05-09T04:54:25.056Z,63.52
2023-05-09T04:55:26.468Z,60.32
2023-05-09T04:56:27.851Z,61.25
2023-05-09T04:57:29.280Z,63.56
2023-05-09T04:58:31.139Z,62.83
2023-05-09T04:59:32.691Z,64.30
2023-05-09T05:00:34.405Z,62.99
2023-05-09T05:01:35.864Z,63.13
2023-05-09T05:02:37.338Z,62.06
2023-05-09T05:03:38.820Z,61.66
2023-05-09T05:04:40.280Z,61.14
2023-05-09T05:05:42.418Z,62.62
2023-05-09T05:06:43.852Z,61.28
2023-05-09T05:07:45.300Z,61.25
2023-05-09T05:08:46.717Z,60.11
2023-05-09T05:09:48.221Z,61.59
2023-05-09T05:10:49.673Z,60.95
2023-05-09T05:12:00.761Z,60.36
2023-05-09T05:13:03.447Z,58.19
2023-05-09T05:14:04.903Z,58.42
2023-05-09T05:15:06.673Z,58.32
2023-05-09T05:16:08.093Z,57.74
2023-05-09T05:17:09.536Z,56.41
2023-05-09T05:18:10.983Z,58.69
2023-05-09T05:19:12.382Z,57.09
2023-05-09T05:20:14.063Z,57.88
2023-05-09T05:21:16.260Z,57.72
2023-05-09T05:22:17.718Z,57.14
2023-05-09T05:23:19.337Z,55.38
2023-05-09T05:24:20.802Z,57.70
2023-05-09T05:25:22.247Z,56.08
2023-05-09T05:26:23.636Z,57.65
2023-05-09T05:27:25.024Z,58.53
2023-05-09T05:28:26.422Z,61.07
2023-05-09T05:29:27.874Z,59.71
2023-05-09T05:30:30.368Z,60.25
2023-05-09T05:31:32.521Z,59.34
2023-05-09T05:32:33.995Z,57.20
2023-05-09T05:33:35.456Z,58.75
2023-05-09T05:34:36.865Z,58.02
2023-05-09T05:35:38.315Z,59.17
2023-05-09T05:36:39.711Z,56.61
2023-05-09T05:37:41.695Z,56.26
2023-05-09T05:38:42.989Z,58.66
2023-05-09T05:39:44.480Z,56.96
2023-05-09T05:40:45.980Z,58.17
2023-05-09T05:41:47.367Z,58.11
2023-05-09T05:42:48.863Z,57.36
2023-05-09T05:43:51.529Z,55.48
2023-05-09T05:44:54.907Z,57.51
2023-05-09T05:45:56.371Z,58.09
2023-05-09T05:46:57.844Z,57.74
2023-05-09T05:47:59.282Z,58.18
2023-05-09T05:49:00.839Z,58.04
2023-05-09T05:50:04.390Z,54.59
2023-05-09T05:51:06.527Z,58.22
2023-05-09T05:52:07.833Z,57.17
2023-05-09T05:53:09.220Z,55.67
2023-05-09T05:54:11.109Z,56.44
2023-05-09T05:55:12.520Z,55.99
2023-05-09T05:56:14.169Z,54.29
2023-05-09T05:57:15.583Z,56.77
2023-05-09T05:58:16.982Z,56.07
2023-05-09T05:59:18.420Z,56.20
2023-05-09T06:00:20.621Z,55.37
2023-05-09T06:01:22.059Z,56.91
2023-05-09T06:02:23.532Z,57.50
2023-05-09T06:03:25.062Z,57.08
2023-05-09T06:04:26.847Z,57.50
2023-05-09T06:05:28.259Z,56.95
2023-05-09T06:06:29.761Z,57.25
2023-05-09T06:07:31.399Z,53.53
2023-05-09T06:08:32.817Z,54.91
2023-05-09T06:09:34.269Z,56.40
2023-05-09T06:10:36.031Z,56.90
2023-05-09T06:11:37.611Z,55.50
2023-05-09T06:12:39.014Z,56.30
2023-05-09T06:13:40.393Z,58.30
2023-05-09T06:14:41.831Z,55.43
2023-05-09T06:15:43.507Z,55.97
2023-05-09T06:16:45.028Z,54.49
2023-05-09T06:17:46.504Z,54.46
2023-05-09T06:18:48.629Z,55.99
2023-05-09T06:19:50.111Z,55.23
2023-05-09T06:20:51.577Z,58.44
2023-05-09T06:21:53.026Z,54.17
2023-05-09T06:22:54.488Z,52.77
2023-05-09T06:24:05.036Z,53.80
2023-05-09T06:25:10.605Z,53.32
2023-05-09T06:26:12.347Z,54.34
2023-05-09T06:27:13.859Z,54.23
2023-05-09T06:28:15.338Z,53.53
2023-05-09T06:29:16.777Z,54.37
2023-05-09T06:30:26.365Z,53.86
2023-05-09T06:31:28.500Z,52.85
2023-05-09T06:32:30.018Z,54.22
2023-05-09T06:33:31.452Z,55.88
2023-05-09T06:34:32.927Z,53.63
2023-05-09T06:35:34.322Z,53.30
2023-05-09T06:36:35.840Z,53.44
2023-05-09T06:37:37.255Z,53.62
2023-05-09T06:38:38.634Z,53.75
2023-05-09T06:39:40.182Z,53.39
2023-05-09T06:40:41.859Z,54.46
2023-05-09T06:41:43.318Z,54.32
2023-05-09T06:42:45.221Z,57.52
2023-05-09T06:43:46.619Z,55.75
2023-05-09T06:44:48.070Z,52.72
2023-05-09T06:45:49.557Z,57.36
2023-05-09T06:46:50.950Z,56.86
2023-05-09T06:47:52.511Z,52.84
2023-05-09T06:48:56.933Z,52.74
2023-05-09T06:49:58.377Z,54.71
2023-05-09T06:50:59.802Z,52.63
2023-05-09T06:52:01.202Z,54.52
2023-05-09T06:53:02.620Z,53.37
2023-05-09T06:54:04.132Z,55.53
2023-05-09T06:55:06.249Z,54.56
2023-05-09T06:56:07.777Z,55.40
2023-05-09T06:57:09.258Z,55.50
2023-05-09T06:58:11.232Z,51.12
2023-05-09T06:59:13.372Z,53.06
2023-05-09T07:00:15.609Z,52.93
2023-05-09T07:01:17.679Z,52.13
2023-05-09T07:02:19.128Z,52.97
2023-05-09T07:03:20.592Z,52.01
2023-05-09T07:04:22.016Z,53.28
2023-05-09T07:05:23.490Z,54.33
2023-05-09T07:06:25.237Z,54.90
2023-05-09T07:07:26.672Z,53.45
2023-05-09T07:08:28.541Z,52.80
2023-05-09T07:09:29.954Z,52.39
2023-05-09T07:10:31.673Z,50.99
2023-05-09T07:11:37.196Z,52.98
2023-05-09T07:12:38.733Z,52.88
2023-05-09T07:13:40.186Z,51.14
2023-05-09T07:14:41.858Z,52.95
2023-05-09T07:15:43.455Z,52.18
2023-05-09T07:16:46.559Z,52.95
2023-05-09T07:17:48.162Z,52.43
2023-05-09T07:18:49.571Z,52.58
2023-05-09T07:19:51.940Z,54.50
2023-05-09T07:20:53.466Z,51.97
2023-05-09T07:21:54.903Z,52.13
2023-05-09T07:22:58.248Z,52.42
2023-05-09T07:23:59.767Z,52.74
2023-05-09T07:25:01.212Z,52.92
2023-05-09T07:26:02.648Z,52.77
2023-05-09T07:27:04.154Z,53.07
2023-05-09T07:28:05.874Z,52.13
2023-05-09T07:29:07.366Z,52.00
2023-05-09T07:30:09.362Z,54.17
2023-05-09T07:31:10.795Z,53.21
2023-05-09T07:32:12.263Z,54.04
2023-05-09T07:33:13.795Z,52.54
2023-05-09T07:34:16.715Z,52.38
2023-05-09T07:35:19.574Z,52.02
2023-05-09T07:36:21.148Z,51.47
2023-05-09T07:37:22.639Z,51.92
2023-05-09T07:38:24.044Z,51.80
2023-05-09T07:39:25.617Z,51.22
2023-05-09T07:40:27.104Z,51.58
2023-05-09T07:41:28.491Z,49.87
2023-05-09T07:42:32.533Z,50.87
2023-05-09T07:43:34.028Z,50.06
2023-05-09T07:44:35.612Z,49.79
2023-05-09T07:45:37.092Z,50.44
2023-05-09T07:46:40.788Z,51.61
2023-05-09T07:47:42.212Z,48.74
2023-05-09T07:48:43.643Z,47.30
2023-05-09T07:49:46.525Z,47.93
2023-05-09T07:50:47.967Z,47.34
2023-05-09T07:51:49.403Z,48.15
2023-05-09T07:52:51.824Z,49.68
2023-05-09T07:53:55.088Z,47.65
2023-05-09T07:54:56.524Z,48.37
2023-05-09T07:55:58.629Z,47.61
2023-05-09T07:57:00.359Z,49.11
2023-05-09T07:58:01.821Z,48.82
2023-05-09T07:59:03.360Z,47.45
2023-05-09T08:00:06.386Z,48.12
2023-05-09T08:01:07.831Z,47.76
2023-05-09T08:02:09.383Z,49.90
2023-05-09T08:03:11.065Z,48.89
2023-05-09T08:04:12.794Z,47.51
2023-05-09T08:05:14.542Z,48.98
2023-05-09T08:06:16.127Z,48.88
2023-05-09T08:07:17.555Z,47.14
2023-05-09T08:08:18.977Z,46.79
2023-05-09T08:09:21.565Z,48.46
2023-05-09T08:10:23.442Z,48.75
2023-05-09T08:11:24.997Z,46.65
2023-05-09T08:12:26.401Z,45.71
2023-05-09T08:13:28.033Z,45.49
2023-05-09T08:14:29.823Z,45.63
2023-05-09T08:15:31.372Z,45.20
2023-05-09T08:16:32.883Z,46.20
2023-05-09T08:17:34.462Z,46.41
2023-05-09T08:18:35.981Z,46.38
2023-05-09T08:19:37.421Z,44.65
2023-05-09T08:20:38.965Z,45.48
2023-05-09T08:21:40.467Z,45.38
2023-05-09T08:22:41.944Z,46.41
2023-05-09T08:23:43.337Z,44.44
2023-05-09T08:24:46.306Z,45.37
2023-05-09T08:25:47.717Z,43.14
2023-05-09T08:26:49.150Z,44.62
2023-05-09T08:27:52.928Z,46.11
2023-05-09T08:28:54.519Z,44.26
2023-05-09T08:29:55.934Z,46.59
2023-05-09T08:30:57.885Z,45.17
2023-05-09T08:31:59.582Z,42.73
2023-05-09T08:33:01.119Z,45.55
2023-05-09T08:34:02.842Z,44.66
2023-05-09T08:35:04.526Z,43.92
2023-05-09T08:36:06.408Z,42.32
2023-05-09T08:37:07.793Z,43.78
2023-05-09T08:38:09.284Z,44.70
2023-05-09T08:39:10.983Z,43.99
2023-05-09T08:40:12.724Z,47.40
2023-05-09T08:41:14.456Z,46.52
2023-05-09T08:42:19.899Z,45.75
2023-05-09T08:43:23.654Z,43.01
2023-05-09T08:44:25.962Z,42.61
2023-05-09T08:45:30.482Z,43.25
2023-05-09T08:46:37.120Z,43.18
2023-05-09T08:47:38.827Z,44.02
2023-05-09T08:48:43.039Z,41.90
2023-05-09T08:49:45.366Z,43.75
2023-05-09T08:50:47.152Z,42.54
2023-05-09T08:51:49.054Z,44.06
2023-05-09T08:52:51.533Z,43.70
2023-05-09T08:53:53.426Z,41.77
2023-05-09T08:54:54.774Z,43.78
2023-05-09T08:55:58.246Z,43.61
2023-05-09T08:57:01.425Z,42.42
2023-05-09T08:58:04.095Z,41.94
2023-05-09T08:59:05.785Z,41.16
2023-05-09T09:00:11.163Z,42.94
2023-05-09T09:01:14.100Z,42.00
2023-05-09T09:02:15.875Z,41.37
2023-05-09T09:03:17.591Z,41.65
2023-05-09T09:04:19.141Z,43.41
2023-05-09T09:05:40.059Z,39.86
2023-05-09T09:06:43.607Z,41.75
2023-05-09T09:07:45.984Z,43.69
2023-05-09T09:08:48.924Z,41.58
2023-05-09T09:09:52.240Z,41.35
2023-05-09T09:10:54.241Z,40.44
2023-05-09T09:11:55.906Z,40.96
2023-05-09T09:12:59.072Z,43.15
2023-05-09T09:14:05.570Z,43.44
2023-05-09T09:15:14.878Z,40.87
2023-05-09T09:16:21.028Z,41.11
2023-05-09T09:17:28.747Z,42.09
2023-05-09T09:18:33.517Z,40.29
2023-05-09T09:19:36.853Z,40.95
2023-05-09T09:20:45.005Z,40.63
2023-05-09T09:21:53.762Z,39.52
2023-05-09T09:23:03.776Z,42.48
2023-05-09T09:24:07.704Z,38.89
2023-05-09T09:25:09.442Z,37.29
2023-05-09T09:26:10.968Z,38.54
2023-05-09T09:27:12.378Z,36.31
2023-05-09T09:28:13.787Z,36.18
2023-05-09T09:29:16.023Z,36.43
2023-05-09T09:30:17.940Z,38.04
2023-05-09T09:31:20.332Z,37.80
2023-05-09T09:32:33.272Z,37.79
2023-05-09T09:33:35.877Z,37.46
2023-05-09T09:34:37.917Z,39.26
2023-05-09T09:35:40.295Z,41.20
2023-05-09T09:36:41.803Z,37.86
2023-05-09T09:37:43.636Z,39.32
2023-05-09T09:38:44.967Z,37.78
2023-05-09T09:39:56.639Z,39.92
2023-05-09T09:40:59.177Z,37.66
2023-05-09T09:42:11.236Z,37.13
2023-05-09T09:43:12.634Z,37.29
2023-05-09T09:44:17.143Z,39.09
2023-05-09T09:45:20.268Z,37.31
2023-05-09T09:46:21.867Z,38.75
2023-05-09T09:47:33.047Z,40.26
2023-05-09T09:48:35.772Z,39.71
2023-05-09T09:49:37.239Z,38.39
2023-05-09T09:50:38.694Z,37.67
2023-05-09T09:51:41.299Z,38.23
2023-05-09T09:52:56.435Z,36.89
2023-05-09T09:53:57.899Z,37.83
2023-05-09T09:55:00.251Z,39.09
2023-05-09T09:56:01.746Z,38.91
2023-05-09T09:57:03.195Z,37.22
2023-05-09T09:58:16.810Z,37.20
2023-05-09T09:59:25.028Z,37.77
2023-05-09T10:00:28.147Z,38.93
2023-05-09T10:01:29.675Z,38.24
2023-05-09T10:02:31.330Z,36.28
2023-05-09T10:03:41.138Z,37.98
2023-05-09T10:04:43.909Z,40.17
2023-05-09T10:05:45.352Z,39.38
2023-05-09T10:07:15.022Z,37.48
2023-05-09T10:08:17.141Z,37.76
2023-05-09T10:09:18.906Z,38.49
2023-05-09T10:10:20.815Z,37.64
2023-05-09T10:11:22.234Z,38.28
2023-05-09T10:12:23.781Z,39.83
2023-05-09T10:13:26.374Z,38.92
2023-05-09T10:14:28.368Z,38.11
2023-05-09T10:15:41.481Z,38.21
2023-05-09T10:16:54.618Z,39.67
2023-05-09T10:18:01.651Z,36.05
2023-05-09T10:19:04.033Z,36.67
2023-05-09T10:20:06.280Z,35.36
2023-05-09T10:21:12.238Z,36.09
2023-05-09T10:22:17.814Z,38.37
2023-05-09T10:23:20.454Z,35.22
2023-05-09T10:24:34.094Z,35.92
2023-05-09T10:25:44.492Z,35.69
2023-05-09T10:26:49.679Z,35.20
2023-05-09T10:27:55.829Z,33.53
2023-05-09T10:29:00.143Z,35.22
2023-05-09T10:30:06.138Z,35.16
2023-05-09T10:31:14.823Z,34.78
2023-05-09T10:32:26.917Z,34.59
2023-05-09T10:33:37.823Z,36.31
2023-05-09T10:34:42.355Z,35.07
2023-05-09T10:35:48.015Z,35.17
2023-05-09T10:36:49.692Z,36.37
2023-05-09T10:37:55.875Z,36.23
2023-05-09T10:38:57.614Z,34.48
2023-05-09T10:40:01.709Z,34.76
2023-05-09T10:41:03.461Z,36.04
2023-05-09T10:42:05.906Z,34.36
2023-05-09T10:43:08.220Z,36.74
2023-05-09T10:44:10.592Z,34.72
2023-05-09T10:45:12.807Z,33.24
2023-05-09T10:46:15.601Z,34.82
2023-05-09T10:47:17.680Z,36.92
2023-05-09T10:48:19.176Z,34.96
2023-05-09T10:49:21.195Z,33.63
2023-05-09T10:50:23.042Z,33.71
2023-05-09T10:51:24.877Z,33.98
2023-05-09T10:52:31.947Z,34.51
2023-05-09T10:53:45.358Z,33.83
2023-05-09T10:54:58.471Z,32.11
2023-05-09T10:56:01.528Z,33.65
2023-05-09T10:57:03.558Z,31.01
2023-05-09T10:58:26.755Z,32.79
2023-05-09T10:59:41.230Z,32.02
2023-05-09T11:00:42.957Z,33.50
2023-05-09T11:01:44.475Z,31.42
2023-05-09T11:03:06.780Z,35.43
2023-05-09T11:04:14.464Z,29.75
2023-05-09T11:05:20.191Z,32.17
2023-05-09T11:06:44.701Z,32.33
2023-05-09T11:07:46.288Z,33.10
2023-05-09T11:08:47.726Z,31.52
2023-05-09T11:10:06.650Z,34.72
2023-05-09T11:11:22.348Z,31.53
2023-05-09T11:12:23.952Z,30.01
2023-05-09T11:13:30.396Z,30.14
2023-05-09T11:14:44.316Z,29.69
2023-05-09T11:16:03.940Z,31.00
2023-05-09T11:17:07.224Z,31.28
2023-05-09T11:18:11.764Z,31.13
2023-05-09T11:19:33.719Z,32.43
2023-05-09T11:20:36.511Z,29.98
2023-05-09T11:21:38.080Z,30.09
2023-05-09T11:22:44.113Z,30.10
2023-05-09T11:23:45.852Z,29.74
2023-05-09T11:24:51.984Z,28.98
2023-05-09T11:25:53.709Z,30.31
2023-05-09T11:26:55.366Z,28.77
2023-05-09T11:28:02.829Z,29.38
2023-05-09T11:29:06.588Z,28.88
2023-05-09T11:30:09.817Z,30.46
2023-05-09T11:31:16.515Z,27.87
2023-05-09T11:32:18.736Z,28.28
2023-05-09T11:33:27.197Z,27.52
2023-05-09T11:34:29.679Z,28.57
2023-05-09T11:35:31.326Z,30.41
2023-05-09T11:36:33.726Z,28.20
2023-05-09T11:37:46.898Z,27.81
2023-05-09T11:38:48.546Z,27.53
2023-05-09T11:40:00.932Z,28.43
2023-05-09T11:41:02.506Z,28.58
2023-05-09T11:42:04.769Z,28.78
2023-05-09T11:43:07.565Z,28.37
2023-05-09T11:44:20.974Z,28.05
2023-05-09T11:45:24.555Z,27.07
2023-05-09T11:46:27.081Z,28.43
2023-05-09T11:47:29.547Z,27.41
2023-05-09T11:48:31.100Z,30.61
2023-05-09T11:49:32.571Z,28.03
2023-05-09T11:50:34.009Z,28.90
2023-05-09T11:51:38.722Z,28.97
2023-05-09T11:52:41.508Z,28.80
2023-05-09T11:53:46.731Z,27.99
2023-05-09T11:54:49.516Z,27.14
2023-05-09T11:55:51.094Z,26.03
2023-05-09T11:56:52.676Z,27.38
2023-05-09T11:57:54.785Z,26.86
2023-05-09T11:58:56.762Z,27.78
2023-05-09T12:00:00.809Z,27.86
2023-05-09T12:01:02.654Z,29.84
2023-05-09T12:02:07.905Z,30.07
2023-05-09T12:03:09.526Z,28.22
2023-05-09T12:04:11.628Z,29.16
2023-05-09T12:05:15.604Z,27.92
2023-05-09T12:06:19.102Z,26.46
2023-05-09T12:07:20.615Z,29.59
2023-05-09T12:08:24.348Z,28.02
2023-05-09T12:09:31.554Z,26.42
2023-05-09T12:10:38.218Z,27.18
2023-05-09T12:11:49.881Z,27.08
2023-05-09T12:12:53.300Z,27.92
2023-05-09T12:13:54.834Z,28.31
2023-05-09T12:14:56.300Z,28.03
2023-05-09T12:16:01.915Z,27.08
2023-05-09T12:17:03.748Z,27.65
2023-05-09T12:18:05.944Z,26.32
2023-05-09T12:19:10.003Z,27.92
2023-05-09T12:20:12.647Z,25.91
2023-05-09T12:21:14.352Z,27.86
2023-05-09T12:22:15.737Z,26.75
2023-05-09T12:23:18.279Z,28.47
2023-05-09T12:24:22.958Z,27.23
2023-05-09T12:25:24.454Z,27.61
2023-05-09T12:26:27.080Z,28.22
2023-05-09T12:27:29.744Z,26.80
2023-05-09T12:28:31.462Z,26.22
2023-05-09T12:29:33.125Z,26.68
2023-05-09T12:30:34.734Z,26.30
2023-05-09T12:31:37.191Z,29.36
2023-05-09T12:32:40.282Z,28.11
2023-05-09T12:33:42.425Z,27.12
2023-05-09T12:34:48.432Z,26.19
2023-05-09T12:36:18.949Z,28.06
2023-05-09T12:37:20.628Z,26.45
2023-05-09T12:38:23.124Z,26.63
2023-05-09T12:39:24.674Z,28.14
2023-05-09T12:40:26.198Z,28.80
2023-05-09T12:41:39.058Z,27.84
2023-05-09T12:42:45.051Z,28.14
2023-05-09T12:43:49.119Z,27.11
2023-05-09T12:44:50.883Z,27.74
2023-05-09T12:45:52.627Z,26.09
2023-05-09T12:47:04.513Z,27.04
2023-05-09T12:48:06.287Z,28.57
2023-05-09T12:49:19.261Z,27.21
2023-05-09T12:50:21.282Z,27.11
2023-05-09T12:51:23.242Z,28.25
2023-05-09T12:52:25.130Z,28.04
2023-05-09T12:53:31.659Z,27.23
2023-05-09T12:54:33.189Z,27.51
2023-05-09T12:55:41.497Z,29.32
2023-05-09T12:56:42.925Z,29.13
2023-05-09T12:57:58.253Z,28.32
2023-05-09T12:58:59.681Z,27.22
2023-05-09T13:00:04.214Z,26.81
2023-05-09T13:01:06.028Z,29.00
2023-05-09T13:02:07.669Z,28.19
2023-05-09T13:03:41.419Z,26.06
2023-05-09T13:04:42.846Z,27.19
2023-05-09T13:06:04.643Z,26.07
2023-05-09T13:07:12.465Z,29.08
2023-05-09T13:08:13.881Z,27.23
2023-05-09T13:09:15.864Z,25.92
2023-05-09T13:10:27.370Z,25.73
2023-05-09T13:11:29.257Z,26.82
2023-05-09T13:12:30.811Z,27.00
2023-05-09T13:13:33.003Z,29.12
2023-05-09T13:14:34.460Z,26.05
2023-05-09T13:15:36.225Z,27.19
2023-05-09T13:16:37.717Z,28.09
2023-05-09T13:17:39.236Z,28.02
2023-05-09T13:18:40.733Z,27.61
2023-05-09T13:19:42.125Z,26.97
2023-05-09T13:20:43.629Z,26.32
2023-05-09T13:21:45.058Z,28.80
2023-05-09T13:22:46.881Z,27.81
2023-05-09T13:23:50.009Z,26.36
2023-05-09T13:24:54.434Z,25.89
2023-05-09T13:25:55.850Z,30.08
2023-05-09T13:26:57.311Z,26.40
2023-05-09T13:27:58.716Z,28.25
2023-05-09T13:29:00.166Z,28.03
2023-05-09T13:30:01.979Z,25.52
2023-05-09T13:31:03.982Z,25.73
2023-05-09T13:32:05.802Z,26.70
2023-05-09T13:33:24.081Z,27.97
2023-05-09T13:34:27.086Z,27.29
2023-05-09T13:35:28.563Z,27.88
2023-05-09T13:36:30.002Z,26.15
2023-05-09T13:37:31.462Z,27.43